Bayside, New York
Current Conditions -  °F | °C
As of 8:51 PM on Wednesday 17 Dec 2014 (Local Time) from KLGA Reporting Station
Broken Clouds Broken Clouds  
Wind Chill: 38°   Ceiling: 4100
Heat Index: 45°   Visibility: 10mi
Dew Point: 33°   Wind: 15mph
Humidity: 63%   Direction: 290°WNW
Pressure: 29.89"   Gusts: 24mph
Location:  40.77°N, 73.78°W
Report Text: KLGA 180151Z 29013G21KT 10SM BKN041 BKN050 07/01 A2989 RMK AO2 RAE20 SLP121 P0000 T00720006
Loading
Personal Weather Stations






























Interactive Weather Map New forecast layout! Learn more

10-Day Weather Forecast

Advertisements
Track Severe Weather on mobile